createdAt,value
2022-08-26T00:01:33.812Z,24.38
2022-08-26T00:05:36.708Z,24.41
2022-08-26T00:09:40.085Z,24.43
2022-08-26T00:13:44.375Z,24.48
2022-08-26T00:17:51.607Z,24.48
2022-08-26T00:21:53.326Z,24.41
2022-08-26T00:25:54.828Z,24.29
2022-08-26T00:29:58.415Z,24.18
2022-08-26T00:33:59.964Z,24.03
2022-08-26T00:38:02.355Z,23.91
2022-08-26T00:42:04.471Z,23.79
2022-08-26T00:46:14.492Z,23.71
2022-08-26T00:50:21.832Z,23.65
2022-08-26T00:54:26.940Z,23.58
2022-08-26T00:58:31.316Z,23.51
2022-08-26T01:02:32.878Z,23.46
2022-08-26T01:06:34.696Z,23.43
2022-08-26T01:10:37.312Z,23.47
2022-08-26T01:14:40.802Z,23.52
2022-08-26T01:18:43.524Z,23.54
2022-08-26T01:23:05.678Z,23.53
2022-08-26T01:27:12.451Z,23.53
2022-08-26T01:31:17.639Z,23.54
2022-08-26T01:35:19.652Z,23.54
2022-08-26T01:39:21.267Z,23.52
2022-08-26T01:43:25.172Z,23.49
2022-08-26T01:47:30.098Z,23.45
2022-08-26T01:51:34.199Z,23.39
2022-08-26T01:55:40.961Z,23.32
2022-08-26T01:59:43.059Z,23.27
2022-08-26T02:03:54.540Z,23.22
2022-08-26T02:07:56.391Z,23.17
2022-08-26T02:12:01.540Z,23.15
2022-08-26T02:16:03.955Z,23.18
2022-08-26T02:20:06.839Z,23.22
2022-08-26T02:24:16.178Z,23.27
2022-08-26T02:28:19.719Z,23.33
2022-08-26T02:32:21.373Z,23.35
2022-08-26T02:36:28.570Z,23.31
2022-08-26T02:40:31.976Z,23.25
2022-08-26T02:44:33.609Z,23.19
2022-08-26T02:48:35.137Z,23.13
2022-08-26T02:52:37.544Z,23.08
2022-08-26T02:56:39.198Z,23.04
2022-08-26T03:00:52.737Z,23.03
2022-08-26T03:04:57.964Z,23.01
2022-08-26T03:09:04.081Z,22.98
2022-08-26T03:13:05.719Z,22.95
2022-08-26T03:17:07.384Z,22.90
2022-08-26T03:21:13.234Z,22.79
2022-08-26T03:25:16.614Z,22.67
2022-08-26T03:29:36.824Z,22.57
2022-08-26T03:33:38.304Z,22.51
2022-08-26T03:37:39.864Z,22.45
2022-08-26T03:41:41.587Z,22.38
2022-08-26T03:45:43.285Z,22.33
2022-08-26T03:49:47.627Z,22.31
2022-08-26T03:53:49.447Z,22.29
2022-08-26T03:57:51.306Z,22.33
2022-08-26T04:01:52.821Z,22.39
2022-08-26T04:05:54.336Z,22.42
2022-08-26T04:09:59.080Z,22.48
2022-08-26T04:14:01.755Z,22.50
2022-08-26T04:18:03.313Z,22.56
2022-08-26T04:22:04.921Z,22.58
2022-08-26T04:26:07.232Z,22.53
2022-08-26T04:30:10.486Z,22.40
2022-08-26T04:34:12.054Z,22.35
2022-08-26T04:38:16.291Z,22.31
2022-08-26T04:42:21.088Z,22.28
2022-08-26T04:46:28.016Z,22.29
2022-08-26T04:50:29.636Z,22.32
2022-08-26T04:54:31.358Z,22.30
2022-08-26T04:58:32.900Z,22.27
2022-08-26T05:02:34.465Z,22.26
2022-08-26T05:06:37.002Z,22.28
2022-08-26T05:10:39.580Z,22.34
2022-08-26T05:14:42.061Z,22.35
2022-08-26T05:18:45.740Z,22.34
2022-08-26T05:22:47.926Z,22.38
2022-08-26T05:26:49.952Z,22.40
2022-08-26T05:30:51.896Z,22.43
2022-08-26T05:34:54.348Z,22.43
2022-08-26T05:38:57.866Z,22.42
2022-08-26T05:43:00.309Z,22.43
2022-08-26T05:47:04.173Z,22.46
2022-08-26T05:51:07.057Z,22.47
2022-08-26T05:55:08.627Z,22.46
2022-08-26T05:59:14.282Z,22.47
2022-08-26T06:03:16.182Z,22.50
2022-08-26T06:07:17.760Z,22.52
2022-08-26T06:11:25.394Z,22.57
2022-08-26T06:15:27.591Z,22.58
2022-08-26T06:19:33.123Z,22.61
2022-08-26T06:23:54.378Z,22.61
2022-08-26T06:27:55.905Z,22.61
2022-08-26T06:31:58.088Z,22.59
2022-08-26T06:36:01.209Z,22.65
2022-08-26T06:40:03.055Z,22.68
2022-08-26T06:44:06.828Z,22.67
2022-08-26T06:48:08.326Z,22.69
2022-08-26T06:52:11.346Z,22.56
2022-08-26T06:56:13.829Z,22.47
2022-08-26T07:00:15.859Z,22.46
2022-08-26T07:04:23.109Z,22.43
2022-08-26T07:08:24.987Z,22.44
2022-08-26T07:12:26.607Z,22.52
2022-08-26T07:16:28.890Z,22.63
2022-08-26T07:20:31.453Z,22.67
2022-08-26T07:24:35.403Z,22.86
2022-08-26T07:28:36.993Z,23.07
2022-08-26T07:32:38.492Z,23.22
2022-08-26T07:36:40.027Z,23.43
2022-08-26T07:40:41.610Z,23.68
2022-08-26T07:44:43.726Z,23.99
2022-08-26T07:48:46.440Z,24.13
2022-08-26T07:52:48.459Z,24.14
2022-08-26T07:56:50.367Z,24.16
2022-08-26T08:00:53.485Z,24.17
2022-08-26T08:04:55.190Z,24.10
2022-08-26T08:08:57.282Z,24.21
2022-08-26T08:12:58.887Z,24.32
2022-08-26T08:17:00.506Z,24.42
2022-08-26T08:21:21.283Z,24.51
2022-08-26T08:25:38.904Z,24.61
2022-08-26T08:29:41.980Z,24.64
2022-08-26T08:33:43.461Z,24.60
2022-08-26T08:37:45.238Z,24.52
2022-08-26T08:42:06.591Z,24.51
2022-08-26T08:46:11.032Z,24.52
2022-08-26T08:50:24.529Z,24.48
2022-08-26T08:54:29.087Z,24.42
2022-08-26T08:58:49.719Z,24.31
2022-08-26T09:02:59.810Z,24.14
2022-08-26T09:07:02.593Z,24.11
2022-08-26T09:11:04.464Z,24.07
2022-08-26T09:15:09.187Z,24.04
2022-08-26T09:19:14.597Z,23.89
2022-08-26T09:23:20.675Z,23.67
2022-08-26T09:27:36.042Z,23.66
2022-08-26T09:31:39.251Z,23.69
2022-08-26T09:35:42.978Z,23.55
2022-08-26T09:39:44.535Z,23.58
2022-08-26T09:44:05.961Z,23.69
2022-08-26T09:48:08.711Z,23.80
2022-08-26T09:52:13.665Z,23.82
2022-08-26T09:56:16.952Z,23.88
2022-08-26T10:00:27.224Z,23.92
2022-08-26T10:04:30.894Z,23.93
2022-08-26T10:08:34.490Z,23.77
2022-08-26T10:12:38.556Z,23.32
2022-08-26T10:16:48.798Z,23.12
2022-08-26T10:20:56.189Z,23.05
2022-08-26T10:24:59.216Z,23.11
2022-08-26T10:29:07.285Z,23.24
2022-08-26T10:33:10.739Z,23.23
2022-08-26T10:37:20.635Z,23.36
2022-08-26T10:41:25.803Z,23.45
2022-08-26T10:45:28.873Z,23.43
2022-08-26T10:49:30.415Z,23.52
2022-08-26T10:53:40.007Z,23.46
2022-08-26T10:57:58.038Z,23.51
2022-08-26T11:02:21.554Z,23.55
2022-08-26T11:06:27.983Z,23.62
2022-08-26T11:10:38.596Z,23.66
2022-08-26T11:14:53.352Z,23.78
2022-08-26T11:18:56.086Z,23.94
2022-08-26T11:23:18.076Z,24.22
2022-08-26T11:27:25.916Z,24.62
2022-08-26T11:31:27.498Z,24.99
2022-08-26T11:35:37.308Z,25.36
2022-08-26T11:39:54.651Z,25.76
2022-08-26T11:43:57.674Z,26.25
2022-08-26T11:47:59.177Z,26.82
2022-08-26T11:52:10.043Z,27.28
2022-08-26T11:56:31.542Z,27.84
2022-08-26T12:00:39.563Z,28.15
2022-08-26T12:04:49.529Z,28.37
2022-08-26T12:08:52.093Z,28.42
2022-08-26T12:12:55.152Z,28.56
2022-08-26T12:17:08.308Z,28.68
2022-08-26T12:21:13.426Z,28.68
2022-08-26T12:25:21.824Z,28.84
2022-08-26T12:29:27.089Z,29.20
2022-08-26T12:33:29.608Z,29.70
2022-08-26T12:37:34.232Z,30.23
2022-08-26T12:41:38.632Z,30.82
2022-08-26T12:45:43.124Z,31.28
2022-08-26T12:49:44.925Z,32.57
2022-08-26T12:53:46.493Z,32.80
2022-08-26T12:58:10.243Z,33.01
2022-08-26T13:02:33.170Z,33.62
2022-08-26T13:06:35.119Z,34.76
2022-08-26T13:10:37.626Z,36.07
2022-08-26T13:14:40.764Z,37.35
2022-08-26T13:18:42.576Z,37.21
2022-08-26T13:22:58.901Z,36.65
2022-08-26T13:27:01.847Z,37.44
2022-08-26T13:31:04.730Z,38.80
2022-08-26T13:35:07.345Z,37.95
2022-08-26T13:39:08.934Z,36.81
2022-08-26T13:43:11.390Z,36.40
2022-08-26T13:47:13.177Z,37.29
2022-08-26T13:51:14.728Z,37.85
2022-08-26T13:55:16.267Z,38.57
2022-08-26T13:59:17.767Z,37.97
2022-08-26T14:03:19.415Z,37.15
2022-08-26T14:07:21.695Z,36.59
2022-08-26T14:11:25.002Z,36.59
2022-08-26T14:15:26.562Z,36.38
2022-08-26T14:19:31.293Z,35.69
2022-08-26T14:23:32.964Z,34.74
2022-08-26T14:27:34.459Z,33.68
2022-08-26T14:31:36.549Z,33.54
2022-08-26T14:35:38.115Z,33.62
2022-08-26T14:39:39.603Z,33.19
2022-08-26T14:43:43.426Z,32.58
2022-08-26T14:47:45.387Z,32.43
2022-08-26T14:51:47.507Z,32.55
2022-08-26T14:55:50.525Z,32.68
2022-08-26T14:59:52.276Z,32.82
2022-08-26T15:03:53.985Z,32.75
2022-08-26T15:07:55.482Z,32.53
2022-08-26T15:11:57.380Z,32.47
2022-08-26T15:15:58.970Z,32.24
2022-08-26T15:20:01.247Z,32.35
2022-08-26T15:24:02.888Z,32.15
2022-08-26T15:28:04.548Z,31.96
2022-08-26T15:32:06.055Z,31.79
2022-08-26T15:36:08.241Z,31.26
2022-08-26T15:40:11.099Z,31.10
2022-08-26T15:44:14.043Z,31.20
2022-08-26T15:48:16.261Z,31.20
2022-08-26T15:52:19.078Z,30.72
2022-08-26T15:56:20.725Z,30.61
2022-08-26T16:00:22.252Z,30.36
2022-08-26T16:04:24.164Z,30.27
2022-08-26T16:08:25.714Z,30.12
2022-08-26T16:12:31.559Z,30.24
2022-08-26T16:16:33.287Z,30.24
2022-08-26T16:20:36.191Z,30.06
2022-08-26T16:24:37.870Z,29.88
2022-08-26T16:28:40.661Z,29.70
2022-08-26T16:32:42.139Z,29.53
2022-08-26T16:36:43.733Z,29.22
2022-08-26T16:40:48.120Z,28.71
2022-08-26T16:44:50.855Z,28.30
2022-08-26T16:48:53.536Z,28.18
2022-08-26T16:52:55.791Z,28.09
2022-08-26T16:56:57.408Z,27.83
2022-08-26T17:00:58.932Z,27.65
2022-08-26T17:05:00.437Z,27.57
2022-08-26T17:09:02.351Z,27.20
2022-08-26T17:13:03.856Z,27.00
2022-08-26T17:17:06.034Z,26.88
2022-08-26T17:21:09.467Z,26.66
2022-08-26T17:25:16.967Z,26.44
2022-08-26T17:29:18.450Z,26.31
2022-08-26T17:33:24.442Z,26.23
2022-08-26T17:37:26.379Z,26.11
2022-08-26T17:41:27.949Z,26.03
2022-08-26T17:45:29.453Z,25.97
2022-08-26T17:49:31.288Z,25.86
2022-08-26T17:53:34.244Z,25.79
2022-08-26T17:57:40.937Z,25.64
2022-08-26T18:01:43.899Z,25.57
2022-08-26T18:05:49.541Z,25.47
2022-08-26T18:09:51.003Z,25.42
2022-08-26T18:13:53.227Z,25.30
2022-08-26T18:17:54.687Z,25.17
2022-08-26T18:21:56.212Z,24.99
2022-08-26T18:25:57.697Z,24.98
2022-08-26T18:29:59.229Z,24.91
2022-08-26T18:34:01.732Z,24.80
2022-08-26T18:38:11.398Z,24.66
2022-08-26T18:42:13.274Z,24.35
2022-08-26T18:46:14.900Z,24.01
2022-08-26T18:50:16.560Z,23.75
2022-08-26T18:58:40.198Z,23.41
2022-08-26T19:02:41.878Z,23.30
2022-08-26T19:06:50.757Z,23.19
2022-08-26T19:10:52.275Z,23.09
2022-08-26T19:14:54.521Z,23.01
2022-08-26T19:18:56.302Z,22.99
2022-08-26T19:23:02.658Z,22.97
2022-08-26T19:27:14.867Z,22.96
2022-08-26T19:31:16.933Z,22.97
2022-08-26T19:35:18.516Z,22.95
2022-08-26T19:39:20.982Z,22.91
2022-08-26T19:43:23.060Z,22.84
2022-08-26T19:47:25.312Z,22.78
2022-08-26T19:51:28.703Z,22.78
2022-08-26T19:55:30.405Z,22.72
2022-08-26T19:59:33.389Z,22.70
2022-08-26T20:03:35.696Z,22.66
2022-08-26T20:07:49.812Z,22.64
2022-08-26T20:11:52.805Z,22.61
2022-08-26T20:15:58.208Z,22.59
2022-08-26T20:20:30.066Z,22.56
2022-08-26T20:24:38.031Z,22.52
2022-08-26T20:28:44.234Z,22.51
2022-08-26T20:32:54.729Z,22.55
2022-08-26T20:41:54.142Z,22.63
2022-08-26T20:45:56.826Z,22.66
2022-08-26T21:19:48.805Z,22.35
2022-08-26T21:33:51.483Z,22.18
2022-08-26T21:38:24.681Z,22.13
2022-08-26T21:47:53.108Z,22.05
2022-08-26T21:52:41.268Z,22.03
2022-08-26T22:02:01.162Z,21.90
2022-08-26T22:06:17.578Z,21.85
2022-08-26T22:10:24.608Z,21.82
2022-08-26T22:14:37.654Z,21.78
2022-08-26T22:18:46.404Z,21.78
2022-08-26T22:23:16.172Z,21.84
2022-08-26T22:27:24.610Z,21.92
2022-08-26T22:31:37.050Z,21.97
2022-08-26T22:35:47.022Z,22.02
2022-08-26T22:39:49.593Z,22.06
2022-08-26T22:43:54.581Z,22.10
2022-08-26T22:47:56.698Z,22.17
2022-08-26T22:52:04.817Z,22.23
2022-08-26T22:56:07.013Z,22.27
2022-08-26T23:00:11.272Z,22.28
2022-08-26T23:04:16.294Z,22.31
2022-08-26T23:08:21.089Z,22.30
2022-08-26T23:12:25.938Z,22.28
2022-08-26T23:16:28.194Z,22.26
2022-08-26T23:20:39.893Z,22.23
2022-08-26T23:24:41.596Z,22.19
2022-08-26T23:28:43.176Z,22.13
2022-08-26T23:32:45.238Z,22.06
2022-08-26T23:36:47.007Z,22.02
2022-08-26T23:40:48.659Z,22.02
2022-08-26T23:44:50.961Z,22.00
2022-08-26T23:48:52.515Z,22.00
2022-08-26T23:53:06.082Z,21.97
2022-08-26T23:57:09.416Z,21.94
